Capitol Logistics 312


KSEA
Seattle-Tacoma International Airport
Seattle, Washington, US
KIAD
Washington Dulles International Airport
Dulles, Virginia, US

Activity Log

Date Flight Route Aircraft Duration
06/19/2019 CPX312 SEA NORMY J90 MWH HLN DPR MCW DBQ JOT J30 APE AIR J162 MGW GIBBZ2 B763 4h 54m

Route Details

Aircraft Information
Primary: Boeing 767-300BDSF
Backup: Not Available
Route Data
Distance: 20001nm
Sched. Duration: 5h 00m
Avg. Duration: 4h 54m (-46m)
Times Flown: 1
Recm'd Route: SEA NORMY J90 MWH HLN DPR MCW DBQ JOT J30 APE AIR J162 MGW GIBBZ2
Planned Altitude: 33,000ft
Origin Wx: KSEA 281053Z 14003KT 10SM CLR 04/03 A3018 RMK AO2 SLP228 T00440028
Dest. Wx: KIAD 281052Z 20009KT 10SM OVC065 M01/M09 A2994 RMK AO2 SLP142 T10111094
Notes:

Financial History
Total Freight: 57,690lbs
Average Load: 57,690lbs/flt
Fuel Used: 43,546lbs
Avg. Fuel Used: 43,546lbs/flt
Fuel Expense: $48,772
Avg. Fuel Expense: $48,772
Avg. Fuel Cost: $1.12/lbs
Total Gross Income: $72,113
Pilot Pay: $229
Total Expenses: $7,840
Total Revenue: $14,330
Average Revenue: $72,112.50